FW6402 Weather Reports


Display with metric or nautical units.
time (UTC)temp
F
wind
direction
speed
MPH
gust
MPH
rain 1hr
in
rain 24hr
in
rain mn
in
humidity
%
barometer
mb
20260509024407 67 231 0.0 2.0 0.00 0.00 0.00 54 1022.6
20260509023844 67 158 1.0 2.0 0.00 0.00 0.00 54 1022.6
20260509023404 67 254 0.0 2.0 0.00 0.00 0.00 53 1022.6
20260509022841 67 235 0.0 2.0 0.00 0.00 0.00 53 1022.5
20260509022332 67 245 0.0 2.0 0.00 0.00 0.00 53 1022.5
20260509021857 67 245 0.0 2.0 0.00 0.00 0.00 53 1022.5
20260509021353 67 281 0.0 1.0 0.00 0.00 0.00 52 1022.6
20260509020907 68 255 0.0 1.0 0.00 0.00 0.00 52 1022.6
20260509020343 68 233 0.0 2.0 0.00 0.00 0.00 51 1022.6
20260509015909 68 237 1.0 6.0 0.00 0.00 0.00 51 1022.6
20260509015345 68 239 0.0 6.0 0.00 0.00 0.00 51 1022.6
20260509014841 68 298 0.0 3.0 0.00 0.00 0.00 51 1022.7
20260509014339 68 267 1.0 2.0 0.00 0.00 0.00 50 1022.7
20260509013858 69 273 1.0 3.0 0.00 0.00 0.00 50 1022.6
20260509013355 69 84 0.0 3.0 0.00 0.00 0.00 50 1022.6
20260509012852 70 18 0.0 6.0 0.00 0.00 0.00 50 1022.6
20260509012349 70 274 2.0 6.0 0.00 0.00 0.00 49 1022.7
20260509011841 70 243 2.0 4.0 0.00 0.00 0.00 48 1022.8
20260509011407 71 278 0.0 2.0 0.00 0.00 0.00 50 1022.8
20260509010844 70 142 1.0 4.0 0.00 0.00 0.00 50 1022.8
20260509010343 70 291 1.0 4.0 0.00 0.00 0.00 48 1022.8
20260509005840 71 237 1.0 5.0 0.00 0.00 0.00 48 1022.8
20260509005401 71 160 2.0 5.0 0.00 0.00 0.00 50 1022.9
20260509004838 70 264 1.0 3.0 0.00 0.00 0.00 50 1022.9
20260509004337 70 240 2.0 5.0 0.00 0.00 0.00 50 1022.9
20260509003835 70 343 2.0 5.0 0.00 0.00 0.00 51 1023.0
20260509003332 69 236 1.0 4.0 0.00 0.00 0.00 50 1022.9
20260509002844 70 264 3.0 4.0 0.00 0.00 0.00 49 1023.0
20260509002411 70 296 0.0 2.0 0.00 0.00 0.00 50 1023.0
20260509001846 69 266 1.0 4.0 0.00 0.00 0.00 50 1023.1
20260509001344 69 241 2.0 5.0 0.00 0.00 0.00 51 1023.1
20260509000902 69 208 2.0 5.0 0.00 0.00 0.00 51 1023.1
20260509000341 69 240 2.0 6.0 0.00 0.00 0.00 52 1023.1
20260508235837 70 228 3.0 6.0 0.00 0.00 0.00 51 1023.2
20260508235333 69 260 1.0 4.0 0.00 0.00 0.00 53 1023.1
20260508234850 68 124 1.0 5.0 0.00 0.00 0.00 52 1023.1
20260508234342 69 281 2.0 5.0 0.00 0.00 0.00 51 1023.1
20260508233839 69 226 2.0 6.0 0.00 0.00 0.00 51 1023.1
20260508233346 69 246 2.0 6.0 0.00 0.00 0.00 51 1023.1
20260508232844 69 234 3.0 6.0 0.00 0.00 0.00 50 1023.3
20260508232340 69 260 2.0 5.0 0.00 0.00 0.00 50 1023.1
20260508231838 69 264 1.0 5.0 0.00 0.00 0.00 51 1023.2
20260508231335 70 271 2.0 4.0 0.00 0.00 0.00 50 1023.1
20260508230832 70 265 2.0 4.0 0.00 0.00 0.00 50 1023.1
20260508230358 70 203 1.0 4.0 0.00 0.00 0.00 51 1023.1
20260508225855 69 335 1.0 4.0 0.00 0.00 0.00 51 1023.2
20260508225351 68 223 1.0 5.0 0.00 0.00 0.00 52 1023.1
20260508224848 68 266 2.0 4.0 0.00 0.00 0.00 51 1023.1
20260508224341 67 266 1.0 6.0 0.00 0.00 0.00 52 1023.1
20260508223838 68 261 2.0 6.0 0.00 0.00 0.00 50 1023.2
20260508223336 69 219 1.0 4.0 0.00 0.00 0.00 51 1023.3
20260508222854 67 281 1.0 7.0 0.00 0.00 0.00 52 1023.3
20260508222349 67 194 3.0 7.0 0.00 0.00 0.00 51 1023.4
20260508221848 68 272 1.0 7.0 0.00 0.00 0.00 52 1023.5
20260508221405 67 278 2.0 8.0 0.00 0.00 0.00 51 1023.4
20260508220851 66 131 0.0 5.0 0.00 0.00 0.00 54 1023.4
20260508220349 66 84 2.0 7.0 0.00 0.00 0.00 52 1023.4
20260508215846 67 234 3.0 7.0 0.00 0.00 0.00 50 1023.5
20260508215344 67 26 1.0 6.0 0.00 0.00 0.00 52 1023.5
20260508214838 66 297 3.0 6.0 0.00 0.00 0.00 52 1023.4
20260508214337 66 222 2.0 6.0 0.00 0.00 0.00 52 1023.4
20260508213857 66 253 0.0 5.0 0.00 0.00 0.00 53 1023.5
20260508213332 65 217 1.0 5.0 0.00 0.00 0.00 51 1023.5
20260508212850 67 217 3.0 5.0 0.00 0.00 0.00 50 1023.6
20260508212354 66 285 2.0 6.0 0.00 0.00 0.00 53 1023.5
20260508211850 66 163 2.0 6.0 0.00 0.00 0.00 50 1023.6
20260508211348 66 234 3.0 6.0 0.00 0.00 0.00 53 1023.6
20260508210845 66 215 1.0 5.0 0.00 0.00 0.00 53 1023.5
20260508210401 64 230 1.0 7.0 0.00 0.00 0.00 54 1023.6
20260508205836 65 253 2.0 5.0 0.00 0.00 0.00 54 1023.6
20260508205347 64 75 0.0 5.0 0.00 0.00 0.00 54 1023.6
20260508204843 64 270 1.0 5.0 0.00 0.00 0.00 54 1023.6
20260508204407 64 268 3.0 5.0 0.00 0.00 0.00 53 1023.6
20260508203845 64 238 0.0 4.0 0.00 0.00 0.00 55 1023.6
20260508203341 64 228 2.0 10.0 0.00 0.00 0.00 54 1023.6
20260508202831 64 283 2.0 10.0 0.00 0.00 0.00 56 1023.8
20260508202358 64 91 2.0 5.0 0.00 0.00 0.00 54 1023.7
20260508201835 64 36 1.0 6.0 0.00 0.00 0.00 56 1023.7
20260508201333 65 234 3.0 8.0 0.00 0.00 0.00 54 1023.8
20260508200845 64 185 3.0 8.0 0.00 0.00 0.00 54 1023.7
20260508200342 64 245 1.0 5.0 0.00 0.00 0.00 58 1023.7
20260508195914 63 115 0.0 8.0 0.00 0.00 0.00 56 1023.7
20260508195411 62 162 1.0 8.0 0.00 0.00 0.00 58 1023.9
20260508194916 63 120 2.0 7.0 0.00 0.00 0.00 56 1023.9
20260508194352 62 131 2.0 7.0 0.00 0.00 0.00 57 1023.8
20260508193848 62 245 1.0 5.0 0.00 0.00 0.00 59 1023.8
20260508193347 62 226 1.0 5.0 0.00 0.00 0.00 60 1023.8
20260508192842 61 189 2.0 4.0 0.00 0.00 0.00 59 1023.8
20260508192356 61 266 2.0 6.0 0.00 0.00 0.00 60 1023.8
20260508191831 61 211 3.0 6.0 0.00 0.00 0.00 60 1023.8
20260508191348 60 256 2.0 4.0 0.00 0.00 0.00 62 1023.9
20260508190845 60 266 1.0 3.0 0.00 0.00 0.00 60 1023.9
20260508190349 60 285 2.0 4.0 0.00 0.00 0.00 61 1023.9
20260508185906 60 216 1.0 7.0 0.00 0.00 0.00 62 1023.9
20260508185343 60 288 3.0 9.0 0.00 0.00 0.00 62 1023.9
20260508184903 59 266 2.0 4.0 0.00 0.00 0.00 63 1023.9
20260508184348 60 246 2.0 4.0 0.00 0.00 0.00 62 1023.9
20260508183853 60 241 1.0 6.0 0.00 0.00 0.00 62 1023.9
20260508183348 60 243 2.0 7.0 0.00 0.00 0.00 62 1023.9
20260508182905 60 198 1.0 8.0 0.00 0.00 0.00 65 1023.8
20260508182341 59 283 1.0 8.0 0.00 0.00 0.00 63 1023.9
20260508181902 60 288 3.0 6.0 0.00 0.00 0.00 61 1023.8
20260508181400 60 288 3.0 6.0 0.00 0.00 0.00 61 1023.7
20260508180837 59 297 4.0 6.0 0.00 0.00 0.00 63 1023.7
20260508180335 59 266 2.0 6.0 0.00 0.00 0.00 63 1023.7
20260508175847 58 217 3.0 5.0 0.00 0.00 0.00 64 1023.7
20260508175343 58 252 3.0 5.0 0.00 0.00 0.00 66 1023.6
20260508174841 58 80 1.0 6.0 0.00 0.00 0.00 69 1023.6
20260508174341 57 273 2.0 6.0 0.00 0.00 0.00 68 1023.5
20260508173837 58 260 2.0 6.0 0.00 0.00 0.00 67 1023.5
20260508173334 59 276 2.0 5.0 0.00 0.00 0.00 67 1023.3
20260508172831 58 219 2.0 5.0 0.00 0.00 0.00 68 1023.3
20260508172355 58 207 2.0 4.0 0.00 0.00 0.00 69 1023.3
20260508171830 57 244 1.0 4.0 0.00 0.00 0.00 70 1023.3
20260508171402 57 302 1.0 4.0 0.00 0.00 0.00 70 1023.2
20260508170836 57 263 1.0 5.0 0.00 0.00 0.00 71 1023.0
20260508170402 57 219 2.0 5.0 0.00 0.00 0.00 70 1023.1
20260508165839 56 224 2.0 4.0 0.00 0.00 0.00 71 1023.0
20260508165330 56 142 0.0 4.0 0.00 0.00 0.00 72 1022.8
20260508164857 56 235 0.0 6.0 0.00 0.00 0.00 71 1022.7
20260508164353 56 220 2.0 6.0 0.00 0.00 0.00 72 1022.7
20260508163831 56 78 1.0 3.0 0.00 0.00 0.00 71 1022.7
20260508163349 56 236 0.0 3.0 0.00 0.00 0.00 72 1022.7
20260508162845 55 165 0.0 5.0 0.00 0.00 0.00 73 1022.8
20260508162401 55 198 1.0 5.0 0.00 0.00 0.00 73 1022.8
20260508161919 55 288 1.0 4.0 0.00 0.00 0.00 74 1022.7
20260508161332 55 250 1.0 4.0 0.00 0.00 0.00 74 1022.6
20260508160848 55 255 1.0 3.0 0.00 0.00 0.00 73 1022.6
20260508160346 55 123 0.0 2.0 0.00 0.00 0.00 74 1022.6
20260508155852 54 250 0.0 2.0 0.00 0.00 0.00 75 1022.6
20260508155348 53 266 1.0 4.0 0.00 0.00 0.00 76 1022.7
20260508154846 53 243 2.0 3.0 0.00 0.00 0.00 76 1022.6
20260508154343 54 234 1.0 2.0 0.00 0.00 0.00 76 1022.5
20260508153839 54 236 1.0 3.0 0.00 0.00 0.00 75 1022.5
20260508153354 54 151 0.0 4.0 0.00 0.00 0.00 76 1022.5
20260508152852 53 68 0.0 4.0 0.00 0.00 0.00 77 1022.6
20260508152350 53 83 0.0 3.0 0.00 0.00 0.00 77 1022.7
20260508151846 53 96 1.0 3.0 0.00 0.00 0.00 77 1022.8
20260508151345 53 76 0.0 2.0 0.00 0.00 0.00 77 1022.8
20260508150911 53 258 0.0 2.0 0.00 0.00 0.00 77 1022.8
20260508150347 53 265 0.0 2.0 0.00 0.00 0.00 78 1022.8
20260508145843 53 136 0.0 3.0 0.00 0.00 0.00 77 1022.9
20260508145408 53 68 1.0 3.0 0.00 0.00 0.00 78 1023.0
20260508144840 53 262 0.0 3.0 0.00 0.00 0.00 78 1023.0
20260508144358 52 268 0.0 2.0 0.00 0.00 0.00 79 1023.0
20260508143855 51 214 0.0 3.0 0.00 0.00 0.00 80 1022.9
20260508143332 51 191 1.0 3.0 0.00 0.00 0.00 80 1022.9
20260508142830 51 231 0.0 2.0 0.00 0.00 0.00 81 1022.9
20260508142417 51 241 1.0 4.0 0.00 0.00 0.00 80 1022.9
20260508141852 51 236 1.0 4.0 0.00 0.00 0.00 81 1022.8
20260508141409 51 86 1.0 2.0 0.00 0.00 0.00 82 1022.6
20260508140844 50 15 0.0 0.0 0.00 0.00 0.00 83 1022.6
20260508140338 49 14 0.0 2.0 0.00 0.00 0.00 83 1022.5
20260508135836 49 223 0.0 2.0 0.00 0.00 0.00 83 1022.5
20260508135342 49 238 0.0 0.0 0.00 0.00 0.00 83 1022.4
20260508134840 49 240 0.0 0.0 0.00 0.00 0.00 82 1022.2
20260508134359 49 240 0.0 1.0 0.00 0.00 0.00 82 1022.2
20260508133834 49 240 0.0 1.0 0.00 0.00 0.00 82 1022.0
20260508133332 50 231 0.0 2.0 0.00 0.00 0.00 81 1021.8
20260508132848 50 248 0.0 3.0 0.00 0.00 0.00 81 1021.8
20260508132345 50 260 1.0 3.0 0.00 0.00 0.00 81 1021.8
20260508131906 50 237 1.0 3.0 0.00 0.00 0.00 81 1021.5
20260508131341 50 255 0.0 2.0 0.00 0.00 0.00 81 1021.5
20260508130838 50 250 0.0 0.0 0.00 0.00 0.00 80 1021.3
20260508130336 50 250 0.0 0.0 0.00 0.00 0.00 79 1021.2
20260508125855 50 250 0.0 0.0 0.00 0.00 0.00 79 1021.0
20260508125352 50 250 0.0 0.0 0.00 0.00 0.00 79 1021.0
20260508124848 50 250 0.0 2.0 0.00 0.00 0.00 79 1021.1
20260508124346 50 260 0.0 1.0 0.00 0.00 0.00 80 1020.9
20260508123845 50 171 0.0 0.0 0.00 0.00 0.00 79 1020.8
20260508123341 51 171 0.0 0.0 0.00 0.00 0.00 79 1020.8
20260508122904 51 247 0.0 0.0 0.00 0.00 0.00 80 1020.8
20260508122341 51 247 0.0 0.0 0.00 0.00 0.00 79 1020.7
20260508121839 51 248 0.0 0.0 0.00 0.00 0.00 80 1020.8
20260508121405 51 248 0.0 0.0 0.00 0.00 0.00 81 1020.8
20260508120840 51 272 0.0 0.0 0.00 0.00 0.00 81 1020.7
20260508120331 51 272 0.0 0.0 0.00 0.00 0.00 81 1020.7
20260508115857 51 244 0.0 1.0 0.00 0.00 0.00 80 1020.7
20260508115354 51 245 0.0 1.0 0.00 0.00 0.00 81 1020.6
20260508114851 50 264 0.0 0.0 0.00 0.00 0.00 83 1020.5
20260508114351 50 264 0.0 0.0 0.00 0.00 0.00 83 1020.4
20260508113848 50 264 0.0 0.0 0.00 0.00 0.00 84 1020.4
20260508113345 50 264 0.0 0.0 0.00 0.00 0.00 85 1020.4
20260508112840 50 264 0.0 1.0 0.00 0.00 0.00 85 1020.4
20260508112357 50 263 0.0 1.0 0.00 0.00 0.00 84 1020.3
20260508111853 50 267 0.0 0.0 0.00 0.00 0.00 84 1020.3
20260508111350 50 275 0.0 0.0 0.00 0.00 0.00 85 1020.2
20260508110906 50 215 0.0 0.0 0.00 0.00 0.00 84 1020.1
20260508110411 50 216 0.0 0.0 0.00 0.00 0.00 84 1020.1
20260508105845 50 215 0.0 0.0 0.00 0.00 0.00 84 1020.0
20260508105338 50 95 0.0 0.0 0.00 0.00 0.00 83 1019.8
20260508104859 50 96 0.0 0.0 0.00 0.00 0.00 83 1019.8
20260508104353 50 96 0.0 0.0 0.00 0.00 0.00 84 1019.7
20260508103848 50 235 0.0 0.0 0.00 0.00 0.00 84 1019.7
20260508103403 50 235 0.0 0.0 0.00 0.00 0.00 84 1019.7
20260508102831 50 235 0.0 0.0 0.00 0.00 0.00 84 1019.6
20260508102357 50 235 0.0 0.0 0.00 0.00 0.00 84 1019.6
20260508101834 50 236 0.0 0.0 0.00 0.00 0.00 84 1019.7
20260508101330 50 235 0.0 0.0 0.00 0.00 0.00 83 1019.6
20260508100848 50 235 0.0 1.0 0.00 0.00 0.00 83 1019.5
20260508100340 50 235 0.0 1.0 0.00 0.00 0.00 83 1019.5
20260508095836 50 217 0.0 0.0 0.00 0.00 0.00 82 1019.3
20260508095335 50 70 0.0 2.0 0.00 0.00 0.00 82 1019.3
20260508094832 50 70 0.0 2.0 0.00 0.00 0.00 82 1019.3
20260508094418 50 76 0.0 0.0 0.00 0.00 0.00 82 1019.3
20260508093854 50 77 0.0 0.0 0.00 0.00 0.00 83 1019.3
20260508093351 50 77 0.0 0.0 0.00 0.00 0.00 82 1019.2
20260508092848 50 77 0.0 0.0 0.00 0.00 0.00 81 1019.3
20260508092343 50 77 0.0 0.0 0.00 0.00 0.00 81 1019.2
20260508091843 51 77 0.0 0.0 0.00 0.00 0.00 80 1019.1
20260508091337 51 77 0.0 0.0 0.00 0.00 0.00 80 1019.2
20260508090834 51 77 0.0 0.0 0.00 0.00 0.00 80 1019.1
20260508090345 51 77 0.0 0.0 0.00 0.00 0.00 80 1019.1
20260508085852 51 77 0.0 0.0 0.00 0.00 0.00 80 1019.1
20260508085347 51 77 0.0 0.0 0.00 0.00 0.00 80 1019.1
20260508084844 51 76 0.0 0.0 0.00 0.00 0.00 80 1019.1
20260508084349 51 77 0.0 0.0 0.00 0.00 0.00 80 1019.0
20260508083845 51 77 0.0 0.0 0.00 0.00 0.00 79 1019.0
20260508083403 51 77 0.0 0.0 0.00 0.00 0.00 80 1018.9
20260508082857 51 79 0.0 0.0 0.00 0.00 0.00 79 1019.0
20260508082353 51 79 0.0 0.0 0.00 0.00 0.00 79 1018.8
20260508081847 52 79 0.0 0.0 0.00 0.00 0.00 78 1018.8
20260508081343 52 79 0.0 0.0 0.00 0.00 0.00 78 1018.9
20260508080903 52 79 0.0 0.0 0.00 0.00 0.00 77 1018.8
20260508080341 52 79 0.0 0.0 0.00 0.00 0.00 76 1018.8
20260508075854 52 79 0.0 0.0 0.00 0.00 0.00 76 1018.7
20260508075351 53 79 0.0 0.0 0.00 0.00 0.00 75 1018.7
20260508074904 53 79 0.0 0.0 0.00 0.00 0.00 75 1018.6
20260508074409 53 79 0.0 1.0 0.00 0.00 0.00 76 1018.6
20260508073843 53 79 0.0 1.0 0.00 0.00 0.00 75 1018.6
20260508073340 53 79 0.0 0.0 0.00 0.00 0.00 75 1018.5
20260508072859 53 79 0.0 0.0 0.00 0.00 0.00 74 1018.6
20260508072353 53 79 0.0 0.0 0.00 0.00 0.00 72 1018.4
20260508071354 54 79 0.0 0.0 0.00 0.00 0.00 71 1018.4
20260508070850 54 84 0.0 0.0 0.00 0.00 0.00 72 1018.5
20260508070346 54 84 0.0 0.0 0.00 0.00 0.00 71 1018.5
20260508065844 55 84 0.0 0.0 0.00 0.00 0.00 70 1018.7
20260508065336 55 84 0.0 0.0 0.00 0.00 0.00 70 1018.6
20260508064855 55 84 0.0 0.0 0.00 0.00 0.00 69 1018.6
20260508064352 56 85 0.0 0.0 0.00 0.00 0.00 69 1018.5
20260508063830 56 85 0.0 1.0 0.00 0.00 0.00 69 1018.6
20260508063347 56 85 0.0 1.0 0.00 0.00 0.00 69 1018.5
20260508062845 56 91 0.0 1.0 0.00 0.00 0.00 69 1018.5
20260508062404 56 91 0.0 1.0 0.00 0.00 0.00 69 1018.4
20260508061900 56 94 0.0 0.0 0.00 0.00 0.00 69 1018.5
20260508061338 56 70 0.0 0.0 0.00 0.00 0.00 70 1018.5
20260508060834 56 70 0.0 0.0 0.00 0.00 0.00 69 1018.5
20260508060346 56 70 0.0 1.0 0.00 0.00 0.00 69 1018.5
20260508055843 56 69 0.0 2.0 0.00 0.00 0.00 69 1018.5
20260508055341 57 65 1.0 2.0 0.00 0.00 0.00 68 1018.4
20260508054838 57 117 0.0 1.0 0.00 0.00 0.00 67 1018.4
20260508054359 57 117 0.0 0.0 0.00 0.00 0.00 66 1018.3
20260508053837 57 67 0.0 0.0 0.00 0.00 0.00 66 1018.5
20260508053334 57 66 0.0 0.0 0.00 0.00 0.00 65 1018.3
20260508052832 58 66 0.0 0.0 0.00 0.00 0.00 65 1018.3
20260508052349 58 66 0.0 0.0 0.00 0.00 0.00 65 1018.4
20260508051841 58 66 0.0 0.0 0.00 0.00 0.00 64 1018.4
20260508051338 58 66 0.0 0.0 0.00 0.00 0.00 63 1018.4
20260508050842 58 66 0.0 0.0 0.00 0.00 0.00 62 1018.3
20260508050338 59 66 0.0 0.0 0.00 0.00 0.00 62 1018.3
20260508045858 59 66 0.0 0.0 0.00 0.00 0.00 62 1018.3
20260508045354 59 66 0.0 0.0 0.00 0.00 0.00 61 1018.3
20260508044849 60 66 0.0 0.0 0.00 0.00 0.00 60 1018.4
20260508044346 60 66 0.0 0.0 0.00 0.00 0.00 59 1018.3
20260508043845 60 66 0.0 0.0 0.00 0.00 0.00 59 1018.3
20260508043345 60 66 0.0 0.0 0.00 0.00 0.00 55 1018.2
20260508042837 61 66 0.0 0.0 0.00 0.00 0.00 57 1018.2
20260508042335 61 66 0.0 0.0 0.00 0.00 0.00 57 1018.2
20260508041835 62 66 0.0 0.0 0.00 0.00 0.00 56 1018.1
20260508041332 62 66 0.0 0.0 0.00 0.00 0.00 56 1018.1
20260508040849 62 65 0.0 0.0 0.00 0.00 0.00 55 1018.0
20260508040345 63 66 0.0 0.0 0.00 0.00 0.00 54 1018.0
20260508035912 63 65 0.0 0.0 0.00 0.00 0.00 53 1017.9
20260508035349 64 65 0.0 0.0 0.00 0.00 0.00 52 1017.9
20260508034907 64 65 0.0 0.0 0.00 0.00 0.00 51 1017.9
20260508034402 65 71 0.0 0.0 0.00 0.00 0.00 51 1017.9
20260508033837 65 71 0.0 1.0 0.00 0.00 0.00 49 1017.7
20260508033355 66 71 0.0 1.0 0.00 0.00 0.00 48 1017.7
20260508032832 66 72 0.0 1.0 0.00 0.00 0.00 47 1017.6
20260508032410 66 72 0.0 1.0 0.00 0.00 0.00 47 1017.6
20260508031853 66 357 0.0 1.0 0.00 0.00 0.00 47 1017.6
20260508031330 67 357 0.0 1.0 0.00 0.00 0.00 48 1017.6
20260508030848 67 351 0.0 1.0 0.00 0.00 0.00 45 1017.5
20260508030341 67 351 0.0 1.0 0.00 0.00 0.00 45 1017.4
20260508025845 68 19 0.0 1.0 0.00 0.00 0.00 44 1017.5
20260508025343 68 20 0.0 2.0 0.00 0.00 0.00 44 1017.4
20260508024834 68 86 1.0 2.0 0.00 0.00 0.00 43 1017.4